createdAt,value
2023-01-30T00:01:29.006Z,5.29
2023-01-30T00:03:57.185Z,5.36
2023-01-30T00:06:26.584Z,5.33
2023-01-30T00:08:54.554Z,5.43
2023-01-30T00:11:22.959Z,5.37
2023-01-30T00:13:51.987Z,5.31
2023-01-30T00:16:20.336Z,5.27
2023-01-30T00:18:48.379Z,5.27
2023-01-30T00:21:16.757Z,5.24
2023-01-30T00:23:45.349Z,5.25
2023-01-30T00:26:14.231Z,5.17
2023-01-30T00:28:43.662Z,5.43
2023-01-30T00:31:12.044Z,5.14
2023-01-30T00:33:40.053Z,5.13
2023-01-30T00:36:10.207Z,5.10
2023-01-30T00:38:38.904Z,5.04
2023-01-30T00:41:11.039Z,4.98
2023-01-30T00:43:57.466Z,4.95
2023-01-30T00:46:52.986Z,5.18
2023-01-30T00:49:21.573Z,5.36
2023-01-30T00:51:51.936Z,5.02
2023-01-30T00:54:19.866Z,4.70
2023-01-30T00:56:49.037Z,4.63
2023-01-30T01:53:27.348Z,4.52
2023-01-30T01:55:58.849Z,4.30
2023-01-30T01:58:35.975Z,4.49
2023-01-30T02:01:05.061Z,4.29
2023-01-30T02:03:38.132Z,4.40
2023-01-30T02:06:08.534Z,4.08
2023-01-30T02:08:43.717Z,4.00
2023-01-30T02:11:35.247Z,4.12
2023-01-30T02:14:07.559Z,4.27
2023-01-30T02:16:37.866Z,4.03
2023-01-30T02:19:26.298Z,4.25
2023-01-30T02:22:16.347Z,4.21
2023-01-30T02:25:09.099Z,4.11
2023-01-30T02:28:03.729Z,4.14
2023-01-30T02:31:02.107Z,4.20
2023-01-30T02:33:44.926Z,4.51
2023-01-30T02:36:18.822Z,4.16
2023-01-30T02:39:25.937Z,3.91
2023-01-30T02:42:12.251Z,3.95
2023-01-30T02:45:06.719Z,4.03
2023-01-30T02:47:38.282Z,3.97
2023-01-30T02:50:54.459Z,4.21
2023-01-30T02:53:22.821Z,4.27
2023-01-30T02:55:51.317Z,4.03
2023-01-30T02:58:24.537Z,4.06
2023-01-30T03:01:08.002Z,4.32
2023-01-30T03:03:36.008Z,4.22
2023-01-30T03:06:10.208Z,3.90
2023-01-30T03:09:10.251Z,4.12
2023-01-30T03:12:02.791Z,3.80
2023-01-30T03:14:52.067Z,4.21
2023-01-30T03:17:23.596Z,4.11
2023-01-30T03:19:55.545Z,3.83
2023-01-30T03:22:23.921Z,3.76
2023-01-30T03:24:54.102Z,3.77
2023-01-30T03:27:23.282Z,3.76
2023-01-30T03:29:51.298Z,3.83
2023-01-30T03:32:19.693Z,3.76
2023-01-30T03:34:48.134Z,3.76
2023-01-30T03:37:16.609Z,3.96
2023-01-30T03:39:44.697Z,4.22
2023-01-30T03:42:16.983Z,4.17
2023-01-30T03:44:45.060Z,4.04
2023-01-30T03:47:14.839Z,4.07
2023-01-30T03:49:43.278Z,4.11
2023-01-30T03:52:13.006Z,4.07
2023-01-30T03:54:41.046Z,4.08
2023-01-30T03:57:10.007Z,3.76
2023-01-30T03:59:38.101Z,3.90
2023-01-30T04:02:10.425Z,3.98
2023-01-30T04:04:38.552Z,3.87
2023-01-30T04:07:10.067Z,3.95
2023-01-30T04:09:40.399Z,3.59
2023-01-30T04:12:10.427Z,3.55
2023-01-30T04:14:45.019Z,3.68
2023-01-30T04:17:31.817Z,3.49
2023-01-30T04:20:33.900Z,3.49
2023-01-30T04:23:02.692Z,3.69
2023-01-30T04:25:32.194Z,3.62
2023-01-30T04:28:01.881Z,3.49
2023-01-30T04:30:35.065Z,3.51
2023-01-30T04:33:22.128Z,3.40
2023-01-30T04:35:54.307Z,3.56
2023-01-30T04:38:25.101Z,3.45
2023-01-30T04:40:56.574Z,3.46
2023-01-30T04:43:29.174Z,3.73
2023-01-30T04:46:15.642Z,3.70
2023-01-30T04:48:44.286Z,3.66
2023-01-30T04:51:12.663Z,3.69
2023-01-30T04:53:40.967Z,3.63
2023-01-30T04:56:09.890Z,3.45
2023-01-30T04:58:39.396Z,3.63
2023-01-30T05:01:14.355Z,3.67
2023-01-30T05:03:42.864Z,3.62
2023-01-30T05:06:10.958Z,3.76
2023-01-30T05:08:40.633Z,3.70
2023-01-30T05:11:08.548Z,4.02
2023-01-30T05:13:36.844Z,4.01
2023-01-30T05:16:05.062Z,4.10
2023-01-30T05:18:34.285Z,3.98
2023-01-30T05:21:23.755Z,4.06
2023-01-30T05:23:55.800Z,4.06
2023-01-30T05:26:25.296Z,3.82
2023-01-30T05:28:58.166Z,3.80
2023-01-30T05:31:26.312Z,4.17
2023-01-30T05:33:54.667Z,4.38
2023-01-30T05:36:24.261Z,4.00
2023-01-30T05:38:52.672Z,4.03
2023-01-30T05:41:20.572Z,3.81
2023-01-30T05:43:52.026Z,3.98
2023-01-30T05:46:20.332Z,3.77
2023-01-30T05:48:48.747Z,3.43
2023-01-30T05:51:23.080Z,3.49
2023-01-30T05:53:53.277Z,3.47
2023-01-30T05:56:21.346Z,3.55
2023-01-30T05:58:56.772Z,3.41
2023-01-30T06:01:25.394Z,3.34
2023-01-30T06:03:54.292Z,3.38
2023-01-30T06:06:23.677Z,3.55
2023-01-30T06:08:54.775Z,3.18
2023-01-30T06:11:24.244Z,3.19
2023-01-30T06:13:53.823Z,3.17
2023-01-30T06:16:21.995Z,3.16
2023-01-30T06:18:51.619Z,3.14
2023-01-30T06:21:19.517Z,3.15
2023-01-30T06:23:47.897Z,3.15
2023-01-30T06:26:15.985Z,3.07
2023-01-30T06:28:44.496Z,3.39
2023-01-30T06:31:12.597Z,3.30
2023-01-30T06:33:40.950Z,3.12
2023-01-30T06:36:09.263Z,3.01
2023-01-30T06:38:37.601Z,3.19
2023-01-30T06:41:05.910Z,3.45
2023-01-30T06:43:36.008Z,3.17
2023-01-30T06:46:04.128Z,3.24
2023-01-30T06:48:32.828Z,3.29
2023-01-30T06:51:00.806Z,3.37
2023-01-30T06:53:31.278Z,3.25
2023-01-30T06:56:00.150Z,3.21
2023-01-30T06:58:28.647Z,3.32
2023-01-30T07:00:56.814Z,3.39
2023-01-30T07:03:25.226Z,3.37
2023-01-30T07:05:53.402Z,3.40
2023-01-30T07:08:24.308Z,3.24
2023-01-30T07:10:52.412Z,3.60
2023-01-30T07:13:20.802Z,3.43
2023-01-30T07:15:48.872Z,3.28
2023-01-30T07:18:17.276Z,3.43
2023-01-30T07:20:51.188Z,3.45
2023-01-30T07:23:20.807Z,3.39
2023-01-30T07:25:48.678Z,3.52
2023-01-30T07:29:07.196Z,3.82
2023-01-30T07:31:35.197Z,3.69
2023-01-30T07:34:03.653Z,3.84
2023-01-30T07:36:33.863Z,4.35
2023-01-30T07:39:04.444Z,4.56
2023-01-30T07:41:32.391Z,4.96
2023-01-30T07:44:00.930Z,5.13
2023-01-30T07:46:35.337Z,5.88
2023-01-30T07:49:06.276Z,6.59
2023-01-30T07:51:34.240Z,6.20
2023-01-30T07:54:04.390Z,5.70
2023-01-30T07:56:32.402Z,5.48
2023-01-30T07:59:00.741Z,5.52
2023-01-30T08:01:29.001Z,5.46
2023-01-30T08:03:57.503Z,5.39
2023-01-30T08:06:25.585Z,5.58
2023-01-30T08:08:54.393Z,5.87
2023-01-30T08:11:22.456Z,5.60
2023-01-30T08:13:50.930Z,5.82
2023-01-30T08:16:18.969Z,5.74
2023-01-30T08:18:47.292Z,5.82
2023-01-30T08:21:15.304Z,5.92
2023-01-30T08:23:43.929Z,6.25
2023-01-30T08:26:11.904Z,5.94
2023-01-30T08:28:40.594Z,5.76
2023-01-30T08:31:12.867Z,5.33
2023-01-30T08:33:41.311Z,4.95
2023-01-30T08:36:09.905Z,5.13
2023-01-30T08:38:38.319Z,5.22
2023-01-30T08:41:08.489Z,5.17
2023-01-30T08:43:37.160Z,5.02
2023-01-30T08:46:05.265Z,5.00
2023-01-30T08:48:47.430Z,4.94
2023-01-30T08:51:16.866Z,4.85
2023-01-30T08:53:46.135Z,4.66
2023-01-30T08:56:14.550Z,4.57
2023-01-30T08:58:44.071Z,4.44
2023-01-30T09:01:12.335Z,4.81
2023-01-30T09:03:40.923Z,5.85
2023-01-30T09:06:09.663Z,6.40
2023-01-30T09:08:38.081Z,6.97
2023-01-30T09:11:06.415Z,7.22
2023-01-30T09:13:35.858Z,7.63
2023-01-30T09:16:07.333Z,8.10
2023-01-30T09:18:39.731Z,8.38
2023-01-30T09:21:08.190Z,7.44
2023-01-30T09:23:37.270Z,7.15
2023-01-30T09:26:06.930Z,7.34
2023-01-30T09:28:35.643Z,7.31
2023-01-30T09:31:03.900Z,7.72
2023-01-30T09:33:32.381Z,7.80
2023-01-30T09:36:00.578Z,8.16
2023-01-30T09:38:28.873Z,8.75
2023-01-30T09:41:00.033Z,8.69
2023-01-30T09:43:37.494Z,9.30
2023-01-30T09:46:22.574Z,8.36
2023-01-30T09:49:15.629Z,8.67
2023-01-30T09:52:26.380Z,8.74
2023-01-30T09:55:35.840Z,9.38
2023-01-30T09:58:03.913Z,9.07
2023-01-30T10:00:44.739Z,9.41
2023-01-30T10:03:20.123Z,9.18
2023-01-30T10:06:03.083Z,9.38
2023-01-30T10:08:50.399Z,9.03
2023-01-30T10:11:41.036Z,8.60
2023-01-30T10:14:15.078Z,8.11
2023-01-30T10:17:01.524Z,8.43
2023-01-30T10:20:06.989Z,8.43
2023-01-30T10:22:52.899Z,7.90
2023-01-30T10:25:39.582Z,8.20
2023-01-30T10:28:24.428Z,8.54
2023-01-30T10:31:01.190Z,8.37
2023-01-30T10:33:35.967Z,7.96
2023-01-30T10:36:23.840Z,8.60
2023-01-30T10:38:53.548Z,9.14
2023-01-30T10:41:27.218Z,9.47
2023-01-30T10:44:11.555Z,9.56
2023-01-30T10:47:22.928Z,9.31
2023-01-30T10:50:06.199Z,9.40
2023-01-30T10:52:42.116Z,10.30
2023-01-30T10:55:38.004Z,10.34
2023-01-30T10:58:18.241Z,9.45
2023-01-30T11:01:10.628Z,10.09
2023-01-30T11:03:48.648Z,10.47
2023-01-30T11:06:24.092Z,11.29
2023-01-30T11:08:54.199Z,11.39
2023-01-30T11:11:30.714Z,12.39
2023-01-30T11:14:10.652Z,12.66
2023-01-30T11:16:52.197Z,11.77
2023-01-30T11:19:34.932Z,12.18
2023-01-30T11:22:06.253Z,12.37
2023-01-30T11:24:43.963Z,13.23
2023-01-30T11:27:19.526Z,14.03
2023-01-30T11:29:48.621Z,13.55
2023-01-30T11:32:29.030Z,12.80
2023-01-30T11:35:20.708Z,12.84
2023-01-30T11:37:51.570Z,12.13
2023-01-30T11:40:25.975Z,12.21
2023-01-30T11:43:03.611Z,12.49
2023-01-30T11:45:39.414Z,14.44
2023-01-30T11:48:33.143Z,15.05
2023-01-30T11:51:07.136Z,15.24
2023-01-30T11:54:04.628Z,15.80
2023-01-30T11:56:57.230Z,16.07
2023-01-30T11:59:31.123Z,16.26
2023-01-30T12:02:17.433Z,16.51
2023-01-30T12:04:47.493Z,16.66
2023-01-30T12:07:24.059Z,16.61
2023-01-30T12:09:54.417Z,16.93
2023-01-30T12:12:47.956Z,17.17
2023-01-30T12:15:17.364Z,16.42
2023-01-30T12:18:13.160Z,16.15
2023-01-30T12:20:47.473Z,16.58
2023-01-30T12:23:28.021Z,17.39
2023-01-30T12:26:09.381Z,16.32
2023-01-30T12:29:01.125Z,17.57
2023-01-30T12:31:49.233Z,16.77
2023-01-30T12:34:17.551Z,16.01
2023-01-30T12:37:17.728Z,16.44
2023-01-30T12:39:51.855Z,16.58
2023-01-30T12:42:57.462Z,16.94
2023-01-30T12:45:57.313Z,18.07
2023-01-30T12:48:48.308Z,16.43
2023-01-30T12:51:44.722Z,16.18
2023-01-30T12:54:40.940Z,15.24
2023-01-30T12:57:11.611Z,16.23
2023-01-30T12:59:52.950Z,15.85
2023-01-30T13:03:03.199Z,14.02
2023-01-30T13:05:31.753Z,15.85
2023-01-30T13:08:27.251Z,16.17
2023-01-30T13:11:02.412Z,14.62
2023-01-30T13:13:30.444Z,14.68
2023-01-30T13:16:20.846Z,15.12
2023-01-30T13:19:07.961Z,16.28
2023-01-30T13:22:01.080Z,16.63
2023-01-30T13:24:51.510Z,16.87
2023-01-30T13:27:23.164Z,17.61
2023-01-30T13:29:53.434Z,17.28
2023-01-30T13:32:43.007Z,18.46
2023-01-30T13:35:25.147Z,17.70
2023-01-30T13:37:54.847Z,17.65
2023-01-30T13:40:26.646Z,16.99
2023-01-30T13:43:12.243Z,17.75
2023-01-30T13:45:45.825Z,16.51
2023-01-30T13:48:25.752Z,17.09
2023-01-30T13:51:17.806Z,17.07
2023-01-30T13:54:02.021Z,16.53
2023-01-30T13:56:41.821Z,17.14
2023-01-30T13:59:41.782Z,16.52
2023-01-30T14:02:26.008Z,17.22
2023-01-30T14:04:56.829Z,15.28
2023-01-30T14:07:56.556Z,17.09
2023-01-30T14:10:28.020Z,18.14
2023-01-30T14:12:56.025Z,16.25
2023-01-30T14:15:29.209Z,15.61
2023-01-30T14:18:01.171Z,15.18
2023-01-30T14:20:32.766Z,15.99
2023-01-30T14:23:22.934Z,16.03
2023-01-30T14:25:53.699Z,14.65
2023-01-30T14:28:21.597Z,15.76
2023-01-30T14:30:56.810Z,16.03
2023-01-30T14:33:24.758Z,14.67
2023-01-30T14:35:58.984Z,15.75
2023-01-30T14:38:37.456Z,15.27
2023-01-30T14:41:09.779Z,15.89
2023-01-30T14:43:43.659Z,16.05
2023-01-30T14:46:19.313Z,17.24
2023-01-30T14:48:57.022Z,15.85
2023-01-30T14:51:40.645Z,16.03
2023-01-30T14:54:15.284Z,15.78
2023-01-30T14:57:03.653Z,16.19
2023-01-30T15:00:14.169Z,15.73
2023-01-30T15:02:51.696Z,16.13
2023-01-30T15:05:33.573Z,17.01
2023-01-30T15:08:09.702Z,15.27
2023-01-30T15:11:19.628Z,16.03
2023-01-30T15:14:17.444Z,17.83
2023-01-30T15:17:09.629Z,17.36
2023-01-30T15:19:40.610Z,16.82
2023-01-30T15:22:42.103Z,15.69
2023-01-30T15:25:19.171Z,15.14
2023-01-30T15:28:03.416Z,16.60
2023-01-30T15:31:02.642Z,16.96
2023-01-30T15:33:32.256Z,17.30
2023-01-30T15:36:19.665Z,17.24
2023-01-30T15:38:56.640Z,15.96
2023-01-30T15:41:25.439Z,15.30
2023-01-30T15:44:29.699Z,14.01
2023-01-30T15:47:02.434Z,12.41
2023-01-30T15:50:03.651Z,12.58
2023-01-30T15:52:54.462Z,11.65
2023-01-30T15:55:48.777Z,11.83
2023-01-30T15:58:20.949Z,11.65
2023-01-30T16:01:00.879Z,10.88
2023-01-30T16:03:36.954Z,10.56
2023-01-30T16:06:05.400Z,10.66
2023-01-30T16:08:36.506Z,11.03
2023-01-30T16:11:04.630Z,10.23
2023-01-30T16:13:35.850Z,10.79
2023-01-30T16:16:18.746Z,10.75
2023-01-30T16:18:56.201Z,11.08
2023-01-30T16:21:34.409Z,11.07
2023-01-30T16:24:07.528Z,10.88
2023-01-30T16:26:36.844Z,11.00
2023-01-30T16:29:08.139Z,11.17
2023-01-30T16:31:41.288Z,10.84
2023-01-30T16:34:35.723Z,10.93
2023-01-30T16:37:18.631Z,11.05
2023-01-30T16:40:04.698Z,11.02
2023-01-30T16:42:32.638Z,10.99
2023-01-30T16:45:13.253Z,11.09
2023-01-30T16:47:41.341Z,11.30
2023-01-30T16:50:23.197Z,11.02
2023-01-30T16:52:55.097Z,11.34
2023-01-30T16:55:27.238Z,10.90
2023-01-30T16:58:00.522Z,11.02
2023-01-30T17:00:38.316Z,10.74
2023-01-30T17:03:20.512Z,10.79
2023-01-30T17:05:49.801Z,10.52
2023-01-30T17:08:45.409Z,10.66
2023-01-30T17:11:36.669Z,10.54
2023-01-30T17:14:24.892Z,10.52
2023-01-30T17:17:01.811Z,10.29
2023-01-30T17:19:30.309Z,10.17
2023-01-30T17:22:01.667Z,10.00
2023-01-30T17:24:29.719Z,10.01
2023-01-30T17:27:04.352Z,9.99
2023-01-30T17:29:43.283Z,9.96
2023-01-30T17:32:15.502Z,9.96
2023-01-30T17:34:43.512Z,10.19
2023-01-30T17:37:21.527Z,9.91
2023-01-30T17:39:50.101Z,9.88
2023-01-30T17:42:18.837Z,9.88
2023-01-30T17:44:47.097Z,9.95
2023-01-30T17:47:15.021Z,9.93
2023-01-30T17:49:44.279Z,9.96
2023-01-30T17:52:14.007Z,10.03
2023-01-30T17:54:42.320Z,9.61
2023-01-30T17:57:16.417Z,9.57
2023-01-30T17:59:44.678Z,9.43
2023-01-30T18:02:13.479Z,9.62
2023-01-30T18:04:41.860Z,9.69
2023-01-30T18:07:14.539Z,9.69
2023-01-30T18:09:43.289Z,9.60
2023-01-30T18:12:11.273Z,9.66
2023-01-30T18:14:39.538Z,9.57
2023-01-30T18:17:07.729Z,9.44
2023-01-30T18:19:36.109Z,9.57
2023-01-30T18:22:04.314Z,9.33
2023-01-30T18:24:34.529Z,9.24
2023-01-30T18:27:02.469Z,9.10
2023-01-30T18:29:30.773Z,9.02
2023-01-30T18:32:05.166Z,9.07
2023-01-30T18:34:33.785Z,9.23
2023-01-30T18:37:01.808Z,9.16
2023-01-30T18:39:32.070Z,8.95
2023-01-30T18:42:02.154Z,9.05
2023-01-30T18:44:30.617Z,9.03
2023-01-30T18:46:58.728Z,9.22
2023-01-30T18:49:27.184Z,9.07
2023-01-30T18:51:55.343Z,8.93
2023-01-30T18:54:23.808Z,8.85
2023-01-30T18:56:51.986Z,8.93
2023-01-30T18:59:20.422Z,8.84
2023-01-30T19:01:48.494Z,8.62
2023-01-30T19:04:16.981Z,8.77
2023-01-30T19:06:45.002Z,8.64
2023-01-30T19:09:16.205Z,8.48
2023-01-30T19:12:02.803Z,8.61
2023-01-30T19:14:31.181Z,8.44
2023-01-30T19:16:59.213Z,8.38
2023-01-30T19:19:28.560Z,8.28
2023-01-30T19:21:56.503Z,8.28
2023-01-30T19:24:25.132Z,8.24
2023-01-30T19:26:53.306Z,8.24
2023-01-30T19:29:21.813Z,8.22
2023-01-30T19:31:50.300Z,8.20
2023-01-30T19:34:18.731Z,8.29
2023-01-30T19:36:47.083Z,8.28
2023-01-30T19:39:15.442Z,8.04
2023-01-30T19:41:43.387Z,8.23
2023-01-30T19:44:12.180Z,8.25
2023-01-30T19:46:40.159Z,7.98
2023-01-30T19:49:11.632Z,8.12
2023-01-30T19:51:41.020Z,8.15
2023-01-30T19:54:12.267Z,7.90
2023-01-30T19:56:42.094Z,7.67
2023-01-30T19:59:13.370Z,7.42
2023-01-30T20:01:41.405Z,7.50
2023-01-30T20:04:09.979Z,7.55
2023-01-30T20:06:43.426Z,7.75
2023-01-30T20:09:12.923Z,7.36
2023-01-30T20:11:42.056Z,7.37
2023-01-30T20:14:11.347Z,7.31
2023-01-30T20:16:40.068Z,7.20
2023-01-30T20:19:13.343Z,7.38
2023-01-30T20:21:42.272Z,7.38
2023-01-30T20:24:13.528Z,7.47
2023-01-30T20:26:42.476Z,7.34
2023-01-30T20:29:12.167Z,7.37
2023-01-30T20:31:40.245Z,7.20
2023-01-30T20:34:12.620Z,7.28
2023-01-30T20:36:41.093Z,7.20
2023-01-30T20:39:09.524Z,7.17
2023-01-30T20:41:38.054Z,7.08
2023-01-30T20:44:09.109Z,7.29
2023-01-30T20:46:41.837Z,6.97
2023-01-30T20:49:21.439Z,7.20
2023-01-30T20:51:52.056Z,7.14
2023-01-30T20:54:22.768Z,6.89
2023-01-30T20:56:53.643Z,7.16
2023-01-30T20:59:24.541Z,6.95
2023-01-30T21:01:52.989Z,6.95
2023-01-30T21:04:24.653Z,6.99
2023-01-30T21:06:53.066Z,6.77
2023-01-30T21:09:23.405Z,6.78
2023-01-30T21:11:53.224Z,6.77
2023-01-30T21:14:22.070Z,6.81
2023-01-30T21:16:50.137Z,6.90
2023-01-30T21:19:18.838Z,6.96
2023-01-30T21:21:51.625Z,6.64
2023-01-30T21:24:24.053Z,6.76
2023-01-30T21:26:53.274Z,6.73
2023-01-30T21:29:25.679Z,6.65
2023-01-30T21:31:54.439Z,6.49
2023-01-30T21:34:23.479Z,6.53
2023-01-30T21:37:10.188Z,6.56
2023-01-30T21:39:56.860Z,6.69
2023-01-30T21:43:03.359Z,6.55
2023-01-30T21:45:32.065Z,6.61
2023-01-30T21:47:59.954Z,6.31
2023-01-30T21:50:29.298Z,6.34
2023-01-30T21:52:57.380Z,6.24
2023-01-30T21:55:25.933Z,6.27
2023-01-30T21:57:54.032Z,6.19
2023-01-30T22:00:22.464Z,6.33
2023-01-30T22:02:50.873Z,6.33
2023-01-30T22:05:19.683Z,6.14
2023-01-30T22:07:47.905Z,6.32
2023-01-30T22:10:16.548Z,6.52
2023-01-30T22:12:44.431Z,6.57
2023-01-30T22:15:12.763Z,6.45
2023-01-30T22:17:40.715Z,6.27
2023-01-30T22:20:11.057Z,6.15
2023-01-30T22:22:39.705Z,5.99
2023-01-30T22:25:09.604Z,6.08
2023-01-30T22:27:38.458Z,6.19
2023-01-30T22:30:07.179Z,6.18
2023-01-30T22:32:35.083Z,6.20
2023-01-30T22:35:03.447Z,6.21
2023-01-30T22:37:31.341Z,6.04
2023-01-30T22:40:00.689Z,6.04
2023-01-30T22:42:28.634Z,5.90
2023-01-30T22:44:56.866Z,5.95
2023-01-30T22:47:24.884Z,6.13
2023-01-30T22:49:53.231Z,5.86
2023-01-30T22:52:21.093Z,5.99
2023-01-30T22:54:49.423Z,5.82
2023-01-30T22:57:17.405Z,5.74
2023-01-30T22:59:45.674Z,5.89
2023-01-30T23:02:13.654Z,6.22
2023-01-30T23:04:41.971Z,6.01
2023-01-30T23:07:14.077Z,5.89
2023-01-30T23:09:42.403Z,5.86
2023-01-30T23:12:29.166Z,5.92
2023-01-30T23:14:57.493Z,5.97
2023-01-30T23:17:44.016Z,5.94
2023-01-30T23:20:13.991Z,5.88
2023-01-30T23:22:42.025Z,5.90
2023-01-30T23:25:11.326Z,5.79
2023-01-30T23:27:39.204Z,5.86
2023-01-30T23:30:09.399Z,5.58
2023-01-30T23:32:38.098Z,5.83
2023-01-30T23:35:07.188Z,5.78
2023-01-30T23:37:53.350Z,5.65
2023-01-30T23:40:21.598Z,5.69
2023-01-30T23:42:49.669Z,5.61
2023-01-30T23:45:18.231Z,5.54
2023-01-30T23:47:46.361Z,5.42
2023-01-30T23:50:16.238Z,5.43
2023-01-30T23:52:44.828Z,5.33
2023-01-30T23:55:13.250Z,5.39
2023-01-30T23:57:41.239Z,5.27
